Time;durP1;ratioP1;P1;durP2;ratioP2;P2;SDS_P1;SDS_P2;PMS_P1;PMS_P2;Temp;Humidity;BMP_temperature;BMP_pressure;BME280_temperature;BME280_humidity;BME280_pressure;Samples;Min_cycle;Max_cycle;Signal;HPM_P1;HPM_P2
2024/01/09 00:00:28;;;;;;;12.37;6.80;;;;;;;-5.40;92.32;99013.09;5077522;28;20213;-79
2024/01/09 00:02:58;;;;;;;9.47;6.40;;;;;;;-5.49;91.88;99007.91;5076393;28;20245;-79
2024/01/09 00:05:26;;;;;;;11.63;6.27;;;;;;;-5.41;92.27;99016.53;5077316;28;20211;-79
2024/01/09 00:07:59;;;;;;;12.30;7.37;;;;;;;-5.49;91.90;99010.47;5077067;28;20229;-78
2024/01/09 00:10:25;;;;;;;13.00;6.43;;;;;;;-5.44;91.24;99007.06;5077521;28;20207;-79
2024/01/09 00:12:55;;;;;;;12.33;6.60;;;;;;;-5.45;90.92;99005.34;5076792;28;20238;-79
2024/01/09 00:15:21;;;;;;;13.67;6.40;;;;;;;-5.46;90.92;99003.63;5076641;28;20570;-79
2024/01/09 00:17:48;;;;;;;12.27;6.97;;;;;;;-5.43;90.45;99007.94;5076453;28;20207;-78
2024/01/09 00:20:44;;;;;;;11.70;7.17;;;;;;;-5.42;90.21;99000.25;5076964;28;20221;-78
2024/01/09 00:23:12;;;;;;;11.53;7.10;;;;;;;-5.49;90.48;99002.75;5073500;28;20239;-78
2024/01/09 00:25:38;;;;;;;9.90;6.23;;;;;;;-5.55;90.06;99002.72;5076993;28;20224;-79
2024/01/09 00:28:05;;;;;;;13.67;6.83;;;;;;;-5.53;90.07;99001.88;5077259;28;20235;-79
2024/01/09 00:30:32;;;;;;;11.60;6.57;;;;;;;-5.58;90.28;98997.53;5076684;28;20238;-79
2024/01/09 00:32:58;;;;;;;11.13;6.30;;;;;;;-5.56;90.52;99006.16;5077038;28;20232;-78
2024/01/09 00:35:25;;;;;;;11.77;5.97;;;;;;;-5.53;90.47;99006.16;5076935;28;20216;-79
2024/01/09 00:37:51;;;;;;;12.73;6.90;;;;;;;-5.61;90.19;98995.78;5076986;28;20212;-79
2024/01/09 00:40:19;;;;;;;9.27;6.13;;;;;;;-5.59;90.24;98995.81;5077314;28;20207;-79
2024/01/09 00:42:46;;;;;;;14.63;7.60;;;;;;;-5.68;90.34;98999.16;5078958;28;20238;-78
2024/01/09 00:45:13;;;;;;;10.47;6.23;;;;;;;-5.65;90.01;99000.91;5078530;28;20207;-79
2024/01/09 00:47:39;;;;;;;11.30;6.07;;;;;;;-5.68;90.34;98995.75;5079502;28;20626;-79
2024/01/09 00:50:07;;;;;;;12.87;7.37;;;;;;;-5.58;89.09;98993.25;5081925;28;20209;-79
2024/01/09 00:52:33;;;;;;;12.83;6.77;;;;;;;-5.58;89.18;98992.38;5081731;28;20229;-79
2024/01/09 00:55:00;;;;;;;9.70;6.73;;;;;;;-5.65;89.73;98998.34;5081863;28;20230;-80
2024/01/09 00:57:27;;;;;;;13.40;7.27;;;;;;;-5.71;90.29;98999.16;5080839;28;20203;-78
2024/01/09 00:59:54;;;;;;;11.87;6.73;;;;;;;-5.63;89.38;99002.66;5081416;28;20211;-79
2024/01/09 01:02:21;;;;;;;13.03;7.07;;;;;;;-5.57;88.59;98988.97;5081393;28;20606;-79
2024/01/09 01:04:47;;;;;;;11.70;7.93;;;;;;;-5.57;88.38;98978.69;5081811;28;20771;-79
2024/01/09 01:07:14;;;;;;;11.50;6.17;;;;;;;-5.56;88.20;98990.69;5081249;28;20639;-79
2024/01/09 01:09:40;;;;;;;10.90;6.37;;;;;;;-5.64;88.14;98987.19;5081239;28;20209;-79
2024/01/09 01:12:07;;;;;;;14.80;6.57;;;;;;;-5.66;88.15;98988.88;5080341;28;20227;-79
2024/01/09 01:14:35;;;;;;;12.07;7.10;;;;;;;-5.66;88.23;98991.47;5080671;28;20715;-78
2024/01/09 01:17:01;;;;;;;11.50;6.87;;;;;;;-5.57;87.86;98986.41;5081402;28;20565;-79
2024/01/09 01:19:28;;;;;;;10.23;6.57;;;;;;;-5.62;87.72;98985.50;5080849;28;20207;-79
2024/01/09 01:21:54;;;;;;;11.57;6.13;;;;;;;-5.65;88.23;98995.75;5080776;28;20242;-79
2024/01/09 01:24:21;;;;;;;9.43;5.93;;;;;;;-5.77;88.24;98995.66;5080630;28;20210;-79
2024/01/09 01:26:47;;;;;;;11.30;7.00;;;;;;;-5.86;88.91;99005.94;5080493;28;20661;-79
2024/01/09 01:29:14;;;;;;;11.70;6.77;;;;;;;-5.84;89.03;99010.25;5080448;28;20223;-79
2024/01/09 01:31:42;;;;;;;10.60;6.57;;;;;;;-5.75;89.19;99009.44;5080995;28;20227;-79
2024/01/09 01:34:08;;;;;;;9.57;5.87;;;;;;;-5.76;88.88;99007.66;5079780;28;20600;-79
2024/01/09 01:36:34;;;;;;;14.17;7.53;;;;;;;-5.75;89.06;99004.28;5079827;28;20218;-79
2024/01/09 01:39:01;;;;;;;11.13;6.57;;;;;;;-5.81;89.01;99014.56;5080817;28;20578;-79
2024/01/09 01:41:27;;;;;;;14.17;7.33;;;;;;;-5.78;88.99;99014.53;5078102;28;20289;-78
2024/01/09 01:43:54;;;;;;;13.17;7.07;;;;;;;-5.73;88.64;99012.88;5079278;28;20214;-78
2024/01/09 01:46:21;;;;;;;9.97;6.40;;;;;;;-5.69;88.32;99009.47;5078666;28;20207;-78
2024/01/09 01:48:50;;;;;;;11.87;6.80;;;;;;;-5.71;88.97;99013.72;5076597;28;20232;-79
2024/01/09 01:51:17;;;;;;;12.83;7.03;;;;;;;-5.69;87.97;99006.91;5076703;28;20220;-79
2024/01/09 01:53:44;;;;;;;14.43;6.70;;;;;;;-5.73;87.92;99007.72;5071567;28;20200;-80
2024/01/09 01:56:10;;;;;;;10.87;6.83;;;;;;;-5.83;88.73;99011.09;5057641;28;20715;-78
2024/01/09 01:58:37;;;;;;;10.07;5.53;;;;;;;-5.80;88.82;99016.28;5057656;28;20227;-79
2024/01/09 02:01:04;;;;;;;11.47;5.93;;;;;;;-5.81;88.48;99009.41;5057536;28;20216;-79
2024/01/09 02:03:30;;;;;;;13.80;7.13;;;;;;;-5.78;88.39;99005.09;5055767;28;20737;-79
2024/01/09 02:05:59;;;;;;;13.60;6.83;;;;;;;-5.83;88.31;99005.94;5055393;28;20211;-79
2024/01/09 02:08:28;;;;;;;11.80;6.63;;;;;;;-5.82;88.11;99007.66;5055212;28;20229;-79
2024/01/09 02:10:55;;;;;;;14.13;6.93;;;;;;;-5.85;88.64;99007.66;5054984;28;20688;-79
2024/01/09 02:13:22;;;;;;;16.03;7.87;;;;;;;-5.81;88.57;99006.84;5056029;28;20409;-79
2024/01/09 02:15:48;;;;;;;12.20;6.27;;;;;;;-5.83;88.43;99004.25;5056310;28;20675;-79
2024/01/09 02:18:15;;;;;;;9.83;6.23;;;;;;;-5.84;88.11;99002.53;5057783;28;20207;-79
2024/01/09 02:20:42;;;;;;;17.07;6.73;;;;;;;-5.82;87.99;99007.66;5057773;28;20204;-79
2024/01/09 02:23:10;;;;;;;12.43;6.07;;;;;;;-5.88;88.36;99008.47;5057091;28;20648;-79
2024/01/09 02:25:36;;;;;;;14.77;7.90;;;;;;;-5.91;88.82;99017.88;5057644;28;20214;-81
2024/01/09 02:28:09;;;;;;;16.17;6.43;;;;;;;-5.98;89.75;99016.09;5062365;28;20251;-80
2024/01/09 02:30:38;;;;;;;12.63;7.47;;;;;;;-6.05;90.22;99016.91;5063236;28;20219;-80
2024/01/09 02:33:06;;;;;;;12.23;7.00;;;;;;;-6.05;90.89;99024.63;5062313;28;20238;-79
2024/01/09 02:35:32;;;;;;;15.53;7.53;;;;;;;-6.03;90.89;99025.50;5062083;28;20220;-80
2024/01/09 02:37:59;;;;;;;10.47;6.97;;;;;;;-6.07;90.93;99018.56;5061057;28;20230;-78
2024/01/09 02:40:25;;;;;;;14.47;7.47;;;;;;;-6.14;91.03;99014.22;5058976;28;20204;-79
2024/01/09 02:42:52;;;;;;;11.63;6.53;;;;;;;-6.18;91.54;99022.78;5057043;28;20735;-79
2024/01/09 02:45:18;;;;;;;13.10;8.13;;;;;;;-6.20;91.53;99015.03;5056745;28;20212;-79
2024/01/09 02:47:46;;;;;;;13.10;6.60;;;;;;;-6.21;91.63;99012.44;5056240;28;20497;-79
2024/01/09 02:50:13;;;;;;;14.03;7.27;;;;;;;-6.28;91.63;99011.50;5057716;28;20216;-79
2024/01/09 02:52:39;;;;;;;11.23;6.07;;;;;;;-6.22;91.85;99010.72;5057401;28;20259;-81
2024/01/09 02:55:06;;;;;;;13.83;7.30;;;;;;;-6.19;91.16;99006.47;5057603;28;20555;-79
2024/01/09 02:57:32;;;;;;;9.70;5.90;;;;;;;-6.21;91.49;99007.28;5056998;28;20204;-79
2024/01/09 02:59:59;;;;;;;11.67;6.77;;;;;;;-6.21;90.91;99003.03;5057639;28;20214;-78
2024/01/09 03:02:25;;;;;;;11.63;6.83;;;;;;;-6.29;91.42;99003.78;5056761;28;20354;-79
2024/01/09 03:04:53;;;;;;;14.10;6.97;;;;;;;-6.33;91.73;99012.31;5057369;28;20204;-79
2024/01/09 03:07:19;;;;;;;9.63;6.43;;;;;;;-6.29;91.19;99007.22;5056958;28;20208;-79
2024/01/09 03:09:46;;;;;;;12.20;6.23;;;;;;;-6.28;91.25;99015.78;5055572;28;20232;-79
2024/01/09 03:12:13;;;;;;;12.50;6.30;;;;;;;-6.26;91.11;98999.53;5057129;28;20235;-80
2024/01/09 03:14:41;;;;;;;13.10;6.70;;;;;;;-6.21;90.94;99002.16;5058393;28;20299;-79
2024/01/09 03:17:07;;;;;;;11.17;6.23;;;;;;;-6.20;90.44;98994.47;5057414;28;20212;-79
2024/01/09 03:19:34;;;;;;;11.40;6.13;;;;;;;-6.25;90.69;99000.38;5057889;28;20204;-79
2024/01/09 03:22:02;;;;;;;16.27;7.70;;;;;;;-6.34;90.78;99000.31;5058023;28;20739;-79
2024/01/09 03:24:28;;;;;;;15.63;6.93;;;;;;;-6.37;91.57;99000.25;5057861;28;20227;-79
2024/01/09 03:26:55;;;;;;;12.37;6.20;;;;;;;-6.27;91.10;99002.09;5057499;28;20208;-79
2024/01/09 03:29:21;;;;;;;11.57;7.17;;;;;;;-6.37;91.00;99002.81;5056878;28;20691;-79
2024/01/09 03:31:48;;;;;;;10.67;6.90;;;;;;;-6.30;90.75;99004.66;5057675;28;20234;-79
2024/01/09 03:34:14;;;;;;;10.03;6.00;;;;;;;-6.32;90.98;99001.16;5057936;28;20211;-79
2024/01/09 03:36:40;;;;;;;14.50;7.10;;;;;;;-6.32;90.65;98990.88;5056981;28;20212;-79
2024/01/09 03:39:10;;;;;;;9.23;6.07;;;;;;;-6.34;90.49;98997.72;5057606;28;20560;-79
2024/01/09 03:41:37;;;;;;;11.40;6.07;;;;;;;-6.27;90.31;98991.81;5057878;28;20651;-79
2024/01/09 03:44:12;;;;;;;12.03;6.83;;;;;;;-6.23;89.98;98993.56;5057017;28;20208;-79
2024/01/09 03:46:41;;;;;;;10.30;6.97;;;;;;;-6.24;89.22;98986.69;5057055;28;20211;-79
2024/01/09 03:49:07;;;;;;;14.87;7.27;;;;;;;-6.19;89.27;98991.03;5057166;28;20231;-79
2024/01/09 03:51:34;;;;;;;10.87;7.03;;;;;;;-6.24;89.39;98987.53;5056764;28;20231;-79
2024/01/09 03:54:00;;;;;;;11.10;6.47;;;;;;;-6.17;89.89;98998.78;5056823;28;20217;-79
2024/01/09 03:56:28;;;;;;;12.00;7.00;;;;;;;-6.13;88.91;98992.78;5056299;28;20216;-79
2024/01/09 03:58:55;;;;;;;10.83;6.23;;;;;;;-6.11;88.75;98973.09;5056683;28;20208;-79
2024/01/09 04:01:21;;;;;;;10.33;6.33;;;;;;;-6.06;87.99;98976.56;5054912;28;20293;-79
2024/01/09 04:03:48;;;;;;;10.00;6.10;;;;;;;-6.04;86.92;98969.72;5056333;28;20203;-79
2024/01/09 04:06:14;;;;;;;10.60;6.37;;;;;;;-6.08;86.43;98963.69;5055796;28;20212;-78
2024/01/09 04:08:43;;;;;;;11.43;6.63;;;;;;;-6.15;87.07;98973.91;5056711;28;20600;-79
2024/01/09 04:11:10;;;;;;;11.17;6.30;;;;;;;-6.16;87.48;98974.75;5057438;28;20679;-80
2024/01/09 04:13:38;;;;;;;13.77;6.57;;;;;;;-6.17;87.51;98980.75;5056796;28;20219;-79
2024/01/09 04:16:09;;;;;;;12.63;6.43;;;;;;;-6.18;87.61;98977.31;5058480;28;20585;-80
2024/01/09 04:18:35;;;;;;;12.40;6.40;;;;;;;-6.18;87.52;98981.63;5062911;28;20210;-81
2024/01/09 04:21:02;;;;;;;13.43;6.50;;;;;;;-6.26;88.58;98990.94;5070093;28;20204;-81
2024/01/09 04:23:28;;;;;;;12.07;6.90;;;;;;;-6.33;88.92;98986.59;5069614;28;20212;-80
2024/01/09 04:25:55;;;;;;;10.80;6.27;;;;;;;-6.19;88.26;98988.47;5069022;28;20209;-81
2024/01/09 04:28:21;;;;;;;11.50;6.53;;;;;;;-6.09;87.33;98984.25;5070436;28;20204;-81
2024/01/09 04:30:49;;;;;;;15.13;5.67;;;;;;;-6.11;86.34;98973.09;5069240;28;20212;-81
2024/01/09 04:33:16;;;;;;;7.87;5.67;;;;;;;-6.15;87.34;98986.78;5069162;28;20303;-80
2024/01/09 04:35:44;;;;;;;11.93;5.57;;;;;;;-6.11;87.10;98988.53;5067787;28;20214;-81
2024/01/09 04:38:11;;;;;;;13.17;7.13;;;;;;;-6.03;86.68;98976.59;5067458;28;20217;-81
2024/01/09 04:40:39;;;;;;;10.10;5.50;;;;;;;-6.10;87.15;98979.97;5066240;28;20212;-81
2024/01/09 04:43:05;;;;;;;11.10;6.30;;;;;;;-6.12;86.63;98986.81;5063407;28;20238;-82
2024/01/09 04:45:32;;;;;;;10.53;5.93;;;;;;;-6.11;87.50;98983.41;5061982;28;20215;-80
2024/01/09 04:47:59;;;;;;;11.63;5.60;;;;;;;-6.09;87.11;98981.69;5068692;28;20203;-80
2024/01/09 04:50:26;;;;;;;9.70;5.80;;;;;;;-6.18;86.59;98972.16;5068244;28;20228;-79
2024/01/09 04:52:56;;;;;;;10.43;5.43;;;;;;;-6.04;86.72;98987.75;5067819;28;20228;-81
2024/01/09 04:55:23;;;;;;;11.70;6.00;;;;;;;-6.15;86.80;98973.91;5067457;28;20659;-80
2024/01/09 04:57:49;;;;;;;9.17;5.30;;;;;;;-6.21;87.10;98979.00;5068829;28;20303;-79
2024/01/09 05:00:18;;;;;;;13.57;6.63;;;;;;;-6.11;87.30;98989.38;5066236;28;20209;-80
2024/01/09 05:02:45;;;;;;;9.83;5.87;;;;;;;-6.15;86.78;98977.38;5065879;28;20243;-79
2024/01/09 05:05:15;;;;;;;11.03;5.80;;;;;;;-6.19;87.25;98975.59;5068401;28;20208;-80
2024/01/09 05:07:41;;;;;;;11.87;6.07;;;;;;;-6.24;88.10;98981.56;5069734;28;20212;-81
2024/01/09 05:10:08;;;;;;;13.80;6.20;;;;;;;-6.26;88.09;98988.38;5070244;28;20423;-80
2024/01/09 05:12:35;;;;;;;9.47;5.50;;;;;;;-6.25;88.59;98990.09;5069872;28;20225;-79
2024/01/09 05:15:01;;;;;;;13.43;6.87;;;;;;;-6.18;88.38;98987.59;5067080;28;20276;-82
2024/01/09 05:17:28;;;;;;;13.27;6.63;;;;;;;-6.15;86.95;98974.78;5068321;28;20219;-82
2024/01/09 05:19:54;;;;;;;7.93;5.70;;;;;;;-6.12;86.62;98974.81;5069246;28;20200;-81
2024/01/09 05:22:22;;;;;;;11.33;5.73;;;;;;;-6.07;85.90;98970.56;5068072;28;20621;-81
2024/01/09 05:24:48;;;;;;;10.77;5.70;;;;;;;-6.08;85.42;98962.81;5068985;28;20216;-81
2024/01/09 05:27:15;;;;;;;12.57;5.83;;;;;;;-6.10;86.04;98967.09;5064766;28;20214;-80
2024/01/09 05:29:41;;;;;;;12.83;6.40;;;;;;;-6.22;87.09;98974.72;5065124;28;20228;-80
2024/01/09 05:32:08;;;;;;;10.00;7.00;;;;;;;-6.24;87.30;98976.41;5064373;28;20574;-81
2024/01/09 05:34:34;;;;;;;12.53;6.10;;;;;;;-6.27;87.77;98979.81;5065175;28;20234;-81
2024/01/09 05:37:01;;;;;;;10.60;6.17;;;;;;;-6.30;88.08;98984.91;5066821;28;20211;-78
2024/01/09 05:39:28;;;;;;;9.70;5.03;;;;;;;-6.27;87.50;98987.53;5067478;28;20208;-80
2024/01/09 05:41:55;;;;;;;10.27;5.90;;;;;;;-6.30;87.81;98982.34;5067458;28;20728;-80
2024/01/09 05:44:22;;;;;;;9.13;4.93;;;;;;;-6.29;87.41;98989.19;5066968;28;20604;-79
2024/01/09 05:46:49;;;;;;;13.53;6.33;;;;;;;-6.29;86.80;98988.34;5066068;28;20212;-79
2024/01/09 05:49:16;;;;;;;9.80;6.07;;;;;;;-6.20;85.58;98978.16;5066524;28;20728;-79
2024/01/09 05:51:42;;;;;;;8.57;5.27;;;;;;;-6.23;85.65;98978.13;5066222;28;20228;-80
2024/01/09 05:54:09;;;;;;;12.30;6.57;;;;;;;-6.17;85.03;98978.19;5067271;28;20212;-80
2024/01/09 05:56:37;;;;;;;12.20;5.57;;;;;;;-6.25;84.83;98975.53;5065144;28;20208;-80
2024/01/09 05:59:03;;;;;;;8.97;5.70;;;;;;;-6.25;84.76;98978.09;5066259;28;20208;-80
2024/01/09 06:01:30;;;;;;;10.27;5.83;;;;;;;-6.32;84.38;98971.19;5066449;28;20357;-80
2024/01/09 06:03:56;;;;;;;9.67;5.80;;;;;;;-6.32;84.79;98975.44;5067527;28;20219;-80
2024/01/09 06:06:23;;;;;;;9.33;5.60;;;;;;;-6.36;85.22;98981.44;5067352;28;20208;-80
2024/01/09 06:08:50;;;;;;;9.37;6.20;;;;;;;-6.47;85.21;98978.72;5066638;28;20208;-80
2024/01/09 06:11:16;;;;;;;13.60;6.07;;;;;;;-6.53;86.73;99000.94;5066061;28;20264;-80
2024/01/09 06:13:44;;;;;;;10.40;5.70;;;;;;;-6.57;87.13;98999.19;5065602;28;20212;-81
2024/01/09 06:16:11;;;;;;;6.97;4.87;;;;;;;-6.60;87.50;99004.31;5064803;28;20215;-81
2024/01/09 06:18:37;;;;;;;9.83;5.97;;;;;;;-6.62;88.33;99005.97;5064170;28;20575;-79
2024/01/09 06:21:04;;;;;;;8.80;5.60;;;;;;;-6.58;88.30;99010.31;5067099;28;20203;-81
2024/01/09 06:23:31;;;;;;;9.33;5.33;;;;;;;-6.62;87.79;99004.28;5065105;28;20212;-81
2024/01/09 06:25:57;;;;;;;12.70;6.03;;;;;;;-6.61;88.02;99007.69;5065011;28;20214;-81
2024/01/09 06:28:24;;;;;;;11.10;6.47;;;;;;;-6.66;87.93;99006.81;5063546;28;20208;-81
2024/01/09 06:30:52;;;;;;;9.93;5.80;;;;;;;-6.64;88.45;99007.66;5064101;28;20420;-80
2024/01/09 06:33:18;;;;;;;13.33;6.07;;;;;;;-6.70;89.68;99016.19;5065309;28;20208;-79
2024/01/09 06:35:45;;;;;;;9.90;6.03;;;;;;;-6.78;90.10;99027.22;5065247;28;20208;-79
2024/01/09 06:38:11;;;;;;;9.93;6.00;;;;;;;-6.88;91.50;99035.63;5065095;28;20210;-79
2024/01/09 06:40:38;;;;;;;11.67;5.87;;;;;;;-6.86;91.90;99032.25;5065193;28;20585;-79
2024/01/09 06:43:05;;;;;;;10.33;5.13;;;;;;;-6.87;92.33;99034.78;5065023;28;20630;-79
2024/01/09 06:45:32;;;;;;;12.43;6.77;;;;;;;-6.83;92.56;99044.28;5063615;28;20270;-79
2024/01/09 06:48:00;;;;;;;12.37;6.13;;;;;;;-6.83;92.49;99049.41;5064340;28;20211;-79
2024/01/09 06:50:26;;;;;;;14.10;6.57;;;;;;;-6.87;92.76;99042.50;5063306;28;20254;-79
2024/01/09 06:52:53;;;;;;;13.10;7.13;;;;;;;-6.90;93.32;99047.59;5063831;28;20225;-79
2024/01/09 06:55:19;;;;;;;10.30;5.77;;;;;;;-6.88;93.65;99057.06;5063317;28;20208;-79
2024/01/09 06:57:46;;;;;;;11.83;6.03;;;;;;;-6.78;93.54;99063.19;5063359;28;20701;-79
2024/01/09 07:00:13;;;;;;;10.43;5.87;;;;;;;-6.79;93.26;99058.91;5063600;28;20222;-80
2024/01/09 07:02:40;;;;;;;14.10;6.13;;;;;;;-6.82;93.56;99057.16;5062910;28;20719;-79
2024/01/09 07:05:08;;;;;;;9.30;5.07;;;;;;;-6.77;93.06;99049.50;5063213;28;20223;-79
2024/01/09 07:07:34;;;;;;;10.87;6.20;;;;;;;-6.76;93.07;99051.22;5063110;28;20316;-79
2024/01/09 07:10:01;;;;;;;12.73;6.87;;;;;;;-6.78;93.03;99060.63;5063591;28;20227;-80
2024/01/09 07:12:30;;;;;;;10.80;6.43;;;;;;;-6.71;92.82;99054.72;5062372;28;20224;-79
2024/01/09 07:14:56;;;;;;;9.87;5.00;;;;;;;-6.71;92.21;99054.72;5062963;28;20240;-80
2024/01/09 07:17:23;;;;;;;9.70;6.27;;;;;;;-6.71;92.79;99050.41;5061532;28;20207;-79
2024/01/09 07:19:50;;;;;;;9.80;5.27;;;;;;;-6.66;92.46;99053.06;5064023;28;20200;-80
2024/01/09 07:22:18;;;;;;;9.97;5.87;;;;;;;-6.74;93.14;99059.78;5062619;28;20246;-80
2024/01/09 07:24:44;;;;;;;7.70;5.57;;;;;;;-6.67;93.49;99048.75;5062182;28;20213;-80
2024/01/09 07:27:12;;;;;;;10.33;5.73;;;;;;;-6.56;93.31;99062.59;5062344;28;20722;-79
2024/01/09 07:29:39;;;;;;;12.03;5.73;;;;;;;-6.58;93.21;99052.31;5064504;28;20263;-80
2024/01/09 07:32:07;;;;;;;9.77;5.60;;;;;;;-6.47;91.82;99044.72;5062705;28;20796;-80
2024/01/09 07:34:33;;;;;;;9.87;6.67;;;;;;;-6.40;91.00;99041.38;5061414;28;20313;-80
2024/01/09 07:36:59;;;;;;;11.03;6.17;;;;;;;-6.46;90.79;99038.75;5061254;28;20218;-80
2024/01/09 07:39:27;;;;;;;9.97;5.23;;;;;;;-6.42;91.06;99037.94;5062576;28;20218;-81
2024/01/09 07:41:54;;;;;;;8.77;4.87;;;;;;;-6.42;91.09;99053.38;5062723;28;20603;-80
2024/01/09 07:44:21;;;;;;;13.20;5.83;;;;;;;-6.32;89.88;99050.03;5062475;28;20215;-80
2024/01/09 07:46:47;;;;;;;12.27;6.17;;;;;;;-6.32;89.69;99044.88;5061991;28;20238;-81
2024/01/09 07:49:14;;;;;;;9.07;5.67;;;;;;;-6.30;90.05;99051.78;5062701;28;20204;-80
2024/01/09 07:51:40;;;;;;;8.67;5.03;;;;;;;-6.19;89.19;99057.03;5062016;28;20227;-80
2024/01/09 07:54:07;;;;;;;11.30;6.40;;;;;;;-6.16;89.38;99057.94;5061896;28;20210;-81
2024/01/09 07:56:37;;;;;;;11.40;5.97;;;;;;;-6.15;89.44;99054.53;5060621;28;20212;-80
2024/01/09 07:59:04;;;;;;;9.63;5.57;;;;;;;-6.12;89.32;99058.84;5060582;28;20267;-79
2024/01/09 08:01:31;;;;;;;11.17;6.00;;;;;;;-6.05;88.65;99060.63;5060237;28;20244;-79
2024/01/09 08:03:57;;;;;;;9.83;5.73;;;;;;;-6.04;88.40;99054.63;5060730;28;20216;-79
2024/01/09 08:06:24;;;;;;;11.47;6.27;;;;;;;-6.11;88.59;99055.44;5059787;28;20204;-79
2024/01/09 08:08:51;;;;;;;14.17;5.53;;;;;;;-5.99;89.49;99068.41;5060379;28;20217;-81
2024/01/09 08:11:17;;;;;;;12.13;5.70;;;;;;;-5.85;88.92;99066.84;5060597;28;20232;-81
2024/01/09 08:13:48;;;;;;;9.90;5.90;;;;;;;-5.85;89.07;99054.84;5061028;28;20583;-79
2024/01/09 08:16:14;;;;;;;11.10;5.97;;;;;;;-5.81;88.41;99058.31;5061042;28;20774;-81
2024/01/09 08:18:41;;;;;;;11.47;5.90;;;;;;;-5.72;88.82;99060.91;5060545;28;20218;-81
2024/01/09 08:21:07;;;;;;;10.43;5.93;;;;;;;-5.67;88.33;99059.25;5060259;28;20200;-80
2024/01/09 08:23:36;;;;;;;13.97;6.20;;;;;;;-5.54;86.92;99048.22;5059958;28;20213;-80
2024/01/09 08:26:03;;;;;;;12.23;6.47;;;;;;;-5.50;86.95;99047.41;5059690;28;20217;-79
2024/01/09 08:28:29;;;;;;;11.20;6.40;;;;;;;-5.50;86.31;99044.81;5060111;28;20212;-79
2024/01/09 08:30:57;;;;;;;14.17;6.47;;;;;;;-5.45;85.60;99040.56;5060022;28;20721;-79
2024/01/09 08:33:23;;;;;;;8.57;6.00;;;;;;;-5.42;85.77;99035.44;5060878;28;20208;-79
2024/01/09 08:35:51;;;;;;;10.97;5.50;;;;;;;-5.45;85.79;99035.44;5060716;28;20319;-79
2024/01/09 08:38:18;;;;;;;11.33;6.47;;;;;;;-5.50;84.83;99034.50;5059829;28;20212;-79
2024/01/09 08:40:44;;;;;;;12.37;6.53;;;;;;;-5.44;85.23;99037.97;5059141;28;20205;-80
2024/01/09 08:43:16;;;;;;;13.43;6.93;;;;;;;-5.43;85.15;99033.72;5059126;28;20232;-81
2024/01/09 08:45:43;;;;;;;10.67;6.27;;;;;;;-5.41;85.25;99042.31;5057738;28;20214;-80
2024/01/09 08:48:11;;;;;;;11.53;5.97;;;;;;;-5.42;85.00;99033.72;5059641;28;20212;-80
2024/01/09 08:50:40;;;;;;;10.83;5.63;;;;;;;-5.39;84.13;99030.28;5059162;28;20231;-80
2024/01/09 08:53:07;;;;;;;10.63;6.00;;;;;;;-5.36;83.90;99027.75;5060322;28;20246;-81
2024/01/09 08:55:33;;;;;;;10.53;6.27;;;;;;;-5.20;83.91;99030.44;5057618;28;20231;-80
2024/01/09 08:58:00;;;;;;;12.57;7.03;;;;;;;-5.14;84.52;99037.38;5058296;28;20626;-80
2024/01/09 09:00:27;;;;;;;12.83;6.43;;;;;;;-5.04;83.98;99031.41;5058878;28;20211;-79
2024/01/09 09:02:53;;;;;;;10.93;6.73;;;;;;;-4.99;84.26;99033.16;5059674;28;20244;-79
2024/01/09 09:05:21;;;;;;;12.20;6.07;;;;;;;-4.94;83.38;99031.44;5060636;28;20230;-79
2024/01/09 09:07:48;;;;;;;11.40;6.43;;;;;;;-4.84;82.73;99027.22;5058962;28;20218;-80
2024/01/09 09:10:14;;;;;;;11.43;6.27;;;;;;;-4.76;82.76;99025.53;5063000;28;20299;-80
2024/01/09 09:12:41;;;;;;;11.27;6.50;;;;;;;-4.68;81.69;99018.69;5062634;28;20235;-80
2024/01/09 09:15:08;;;;;;;11.73;6.47;;;;;;;-4.64;81.66;99015.28;5062629;28;20243;-80
2024/01/09 09:17:35;;;;;;;13.90;6.93;;;;;;;-4.61;81.04;99008.44;5062759;28;20223;-80
2024/01/09 09:20:02;;;;;;;12.90;6.27;;;;;;;-4.54;81.07;99006.72;5062849;28;20216;-80
2024/01/09 09:22:30;;;;;;;14.23;7.93;;;;;;;-4.50;80.27;98999.00;5062500;28;20501;-79
2024/01/09 09:24:56;;;;;;;14.60;7.10;;;;;;;-4.39;80.47;99004.19;5061620;28;20454;-79
2024/01/09 09:27:24;;;;;;;10.50;6.17;;;;;;;-4.29;79.96;99003.38;5062265;28;20215;-79
2024/01/09 09:29:52;;;;;;;14.40;7.43;;;;;;;-4.27;79.66;99004.25;5063294;28;20204;-80
2024/01/09 09:32:19;;;;;;;12.50;6.20;;;;;;;-4.20;78.82;98996.53;5064401;28;20638;-79
2024/01/09 09:34:45;;;;;;;9.60;6.20;;;;;;;-4.12;78.04;98991.34;5064821;28;20214;-79
2024/01/09 09:37:12;;;;;;;12.30;6.67;;;;;;;-3.97;78.79;99001.72;5063454;28;20223;-79
2024/01/09 09:39:40;;;;;;;13.77;6.23;;;;;;;-3.96;76.92;98977.63;5064340;28;20212;-80
2024/01/09 09:42:08;;;;;;;11.00;6.67;;;;;;;-3.88;77.87;98987.09;5064862;28;20227;-79
2024/01/09 09:44:38;;;;;;;14.00;7.07;;;;;;;-3.84;78.38;98988.84;5064466;28;20261;-78
2024/01/09 09:47:06;;;;;;;13.30;7.03;;;;;;;-3.73;77.42;98981.09;5065745;28;20210;-78
2024/01/09 09:49:37;;;;;;;12.97;6.80;;;;;;;-3.73;75.41;98968.19;5066254;28;20297;-80
2024/01/09 09:52:06;;;;;;;16.13;6.73;;;;;;;-3.71;74.88;98962.16;5066230;28;20239;-80
2024/01/09 09:54:35;;;;;;;13.00;6.53;;;;;;;-3.65;74.91;98963.84;5065916;28;20208;-81
2024/01/09 09:57:03;;;;;;;11.63;6.53;;;;;;;-3.59;75.19;98974.19;5066176;28;20212;-80
2024/01/09 09:59:32;;;;;;;14.00;7.17;;;;;;;-3.57;74.56;98967.28;5067935;28;20217;-79
2024/01/09 10:02:04;;;;;;;12.23;6.33;;;;;;;-3.43;73.08;98955.25;5066687;28;20257;-80
2024/01/09 10:04:47;;;;;;;12.43;6.30;;;;;;;-3.39;72.38;98946.59;5064725;28;20593;-81
2024/01/09 10:07:16;;;;;;;12.23;6.47;;;;;;;-3.32;73.09;98956.06;5066189;28;20282;-81
2024/01/09 10:09:49;;;;;;;12.03;6.80;;;;;;;-3.29;73.73;98958.66;5067033;28;20213;-80
2024/01/09 10:12:18;;;;;;;14.50;7.43;;;;;;;-3.21;73.23;98957.78;5067125;28;20235;-80
2024/01/09 10:15:07;;;;;;;12.90;6.37;;;;;;;-3.16;72.37;98945.72;5067371;28;20279;-81
2024/01/09 10:17:34;;;;;;;12.10;6.72;;;;;;;-3.17;72.49;98953.47;5065318;28;20890;-80
2024/01/09 10:20:04;;;;;;;13.00;6.47;;;;;;;-3.20;71.96;98943.13;5061044;28;20301;-81
2024/01/09 10:22:33;;;;;;;11.87;6.87;;;;;;;-3.18;71.35;98941.41;5064103;28;20233;-80
2024/01/09 10:24:59;;;;;;;14.27;8.07;;;;;;;-3.21;71.75;98946.56;5060180;28;20440;-78
2024/01/09 10:27:28;;;;;;;15.60;9.65;;;;;;;-3.07;71.79;98942.25;5063728;28;20436;-79
2024/01/09 10:29:54;;;;;;;13.97;7.10;;;;;;;-2.93;71.36;98930.13;5061507;28;20684;-79
2024/01/09 10:32:21;;;;;;;14.07;7.23;;;;;;;-2.84;70.34;98928.34;5059763;28;20234;-79
2024/01/09 10:34:47;;;;;;;10.37;6.27;;;;;;;-2.90;69.60;98917.16;5062803;28;20219;-80
2024/01/09 10:37:14;;;;;;;12.33;6.33;;;;;;;-2.98;69.68;98911.16;5060374;28;20215;-79
2024/01/09 10:39:48;;;;;;;12.00;6.20;;;;;;;-2.92;69.73;98909.44;5059098;28;20757;-83
2024/01/09 10:42:14;;;;;;;14.02;7.80;;;;;;;-2.93;69.29;98909.44;5056916;28;20435;-80
2024/01/09 10:44:42;;;;;;;13.33;6.83;;;;;;;-2.96;70.50;98924.94;5059088;28;20220;-82
2024/01/09 10:47:13;;;;;;;11.93;6.47;;;;;;;-2.86;70.17;98919.75;5058505;28;20596;-82
2024/01/09 10:49:41;;;;;;;11.57;6.50;;;;;;;-2.83;69.44;98919.72;5058066;28;20287;-83
2024/01/09 10:52:12;;;;;;;11.30;5.80;;;;;;;-2.80;69.60;98914.56;5057760;28;20593;-81
2024/01/09 10:54:40;;;;;;;13.90;6.97;;;;;;;-2.75;71.11;98924.88;5055672;28;20205;-79
2024/01/09 10:57:10;;;;;;;11.87;6.43;;;;;;;-2.70;69.33;98910.19;5055603;28;20210;-78
2024/01/09 10:59:39;;;;;;;14.97;7.47;;;;;;;-2.65;68.64;98905.84;5054887;28;20213;-80
2024/01/09 11:02:13;;;;;;;9.13;6.10;;;;;;;-2.53;68.67;98908.38;5057753;28;20716;-78
2024/01/09 11:04:39;;;;;;;9.97;6.00;;;;;;;-2.45;67.21;98891.09;5068014;28;20299;-78
2024/01/09 11:07:07;;;;;;;13.00;7.13;;;;;;;-2.47;66.27;98878.16;5076295;28;20215;-79
2024/01/09 11:09:37;;;;;;;11.67;6.50;;;;;;;-2.38;67.77;98901.38;5078905;28;20216;-78
2024/01/09 11:12:05;;;;;;;13.20;6.10;;;;;;;-2.39;67.33;98896.22;5077943;28;20596;-78
2024/01/09 11:14:32;;;;;;;12.60;6.27;;;;;;;-2.33;66.64;98881.50;5078845;28;20793;-78
2024/01/09 11:17:00;;;;;;;10.37;6.47;;;;;;;-2.32;67.06;98882.38;5075128;28;20681;-77
2024/01/09 11:19:28;;;;;;;10.50;5.77;;;;;;;-2.20;66.81;98888.31;5072630;28;20625;-77
2024/01/09 11:21:55;;;;;;;9.83;6.40;;;;;;;-2.19;66.76;98884.88;5074741;28;20238;-79
2024/01/09 11:24:25;;;;;;;13.13;6.33;;;;;;;-2.16;65.16;98856.34;5077041;28;20232;-78
2024/01/09 11:27:10;;;;;;;11.03;6.47;;;;;;;-2.04;65.71;98868.31;5074310;28;20659;-78